createdAt,value
2022-09-18T00:00:02.924Z,53.23
2022-09-18T00:02:16.014Z,54.27
2022-09-18T00:04:20.032Z,55.16
2022-09-18T00:06:25.503Z,50.00
2022-09-18T00:08:32.500Z,55.69
2022-09-18T00:10:50.667Z,55.37
2022-09-18T00:12:54.659Z,55.51
2022-09-18T00:14:58.718Z,55.41
2022-09-18T00:17:07.017Z,56.11
2022-09-18T00:19:13.377Z,56.17
2022-09-18T00:21:20.605Z,56.67
2022-09-18T00:23:24.751Z,57.22
2022-09-18T00:25:28.127Z,57.52
2022-09-18T00:27:32.486Z,57.49
2022-09-18T00:29:36.182Z,57.07
2022-09-18T00:31:41.781Z,58.05
2022-09-18T00:33:46.370Z,59.71
2022-09-18T00:35:50.110Z,59.52
2022-09-18T00:37:53.958Z,60.18
2022-09-18T00:39:58.203Z,59.88
2022-09-18T00:42:01.790Z,60.20
2022-09-18T00:44:45.665Z,60.17
2022-09-18T00:46:50.062Z,60.07
2022-09-18T00:49:11.858Z,60.59
2022-09-18T00:51:16.193Z,60.89
2022-09-18T00:53:20.402Z,61.60
2022-09-18T00:55:28.738Z,62.65
2022-09-18T00:57:36.692Z,62.61
2022-09-18T00:59:42.522Z,63.58
2022-09-18T01:01:46.077Z,64.34
2022-09-18T01:03:49.910Z,64.70
2022-09-18T01:06:01.230Z,64.88
2022-09-18T01:08:13.597Z,65.90
2022-09-18T01:10:43.350Z,66.01
2022-09-18T01:13:00.120Z,66.26
2022-09-18T01:15:20.201Z,66.68
2022-09-18T01:17:32.746Z,66.74
2022-09-18T01:19:43.913Z,67.42
2022-09-18T01:22:02.826Z,67.59
2022-09-18T01:24:08.778Z,68.14
2022-09-18T01:26:31.689Z,68.56
2022-09-18T01:28:39.150Z,68.53
2022-09-18T01:30:45.019Z,69.32
2022-09-18T01:32:52.948Z,69.01
2022-09-18T01:34:58.121Z,69.47
2022-09-18T01:37:24.791Z,69.69
2022-09-18T01:39:29.349Z,69.86
2022-09-18T01:41:35.281Z,70.04
2022-09-18T01:43:40.831Z,70.91
2022-09-18T01:45:53.258Z,71.19
2022-09-18T01:48:06.951Z,71.62
2022-09-18T01:50:19.026Z,71.78
2022-09-18T01:52:23.295Z,72.31
2022-09-18T01:54:31.596Z,72.74
2022-09-18T01:56:37.941Z,73.07
2022-09-18T01:58:43.479Z,73.51
2022-09-18T02:00:50.440Z,73.87
2022-09-18T02:02:58.263Z,74.29
2022-09-18T02:05:10.895Z,74.92
2022-09-18T02:07:27.468Z,74.89
2022-09-18T02:09:32.637Z,74.65
2022-09-18T02:11:39.172Z,74.20
2022-09-18T02:13:50.250Z,74.80
2022-09-18T02:16:02.400Z,74.88
2022-09-18T02:18:09.950Z,74.94
2022-09-18T02:20:24.778Z,74.86
2022-09-18T02:22:31.577Z,75.28
2022-09-18T02:24:37.366Z,75.95
2022-09-18T02:26:46.046Z,76.21
2022-09-18T02:28:50.632Z,76.48
2022-09-18T02:30:57.546Z,76.80
2022-09-18T02:33:01.308Z,76.95
2022-09-18T02:35:06.708Z,77.60
2022-09-18T02:37:10.681Z,77.74
2022-09-18T02:39:33.603Z,78.00
2022-09-18T02:41:40.631Z,78.68
2022-09-18T02:43:52.477Z,78.90
2022-09-18T02:45:59.678Z,78.71
2022-09-18T02:48:21.520Z,79.00
2022-09-18T02:50:32.612Z,79.26
2022-09-18T02:53:04.860Z,79.36
2022-09-18T02:55:19.938Z,80.14
2022-09-18T02:57:36.827Z,80.35
2022-09-18T02:59:55.530Z,80.76
2022-09-18T03:02:00.176Z,80.68
2022-09-18T03:04:15.294Z,81.01
2022-09-18T03:06:35.287Z,81.03
2022-09-18T03:08:39.018Z,81.29
2022-09-18T03:10:44.121Z,81.45
2022-09-18T03:12:48.281Z,82.15
2022-09-18T03:14:55.806Z,81.94
2022-09-18T03:17:00.934Z,81.87
2022-09-18T03:19:05.017Z,82.64
2022-09-18T03:21:09.440Z,82.07
2022-09-18T03:23:13.183Z,82.14
2022-09-18T03:25:18.318Z,82.15
2022-09-18T03:27:22.124Z,82.61
2022-09-18T03:29:25.816Z,82.44
2022-09-18T03:31:30.794Z,82.38
2022-09-18T03:33:36.512Z,82.40
2022-09-18T03:35:40.392Z,82.94
2022-09-18T03:37:43.959Z,82.84
2022-09-18T03:39:51.567Z,82.98
2022-09-18T03:41:55.454Z,83.21
2022-09-18T03:43:59.219Z,83.64
2022-09-18T03:46:03.388Z,83.82
2022-09-18T03:48:07.073Z,83.51
2022-09-18T03:50:13.138Z,83.69
2022-09-18T03:52:17.575Z,83.52
2022-09-18T03:54:29.115Z,84.19
2022-09-18T03:56:49.462Z,84.30
2022-09-18T03:59:12.973Z,84.16
2022-09-18T04:01:35.051Z,84.66
2022-09-18T04:04:01.382Z,85.24
2022-09-18T04:06:31.900Z,85.61
2022-09-18T04:09:08.378Z,85.93
2022-09-18T04:11:20.230Z,86.16
2022-09-18T04:13:24.412Z,87.15
2022-09-18T04:15:28.450Z,87.22
2022-09-18T04:17:33.070Z,87.13
2022-09-18T04:19:37.043Z,87.60
2022-09-18T04:21:40.998Z,88.04
2022-09-18T04:23:44.706Z,88.06
2022-09-18T04:25:51.946Z,87.93
2022-09-18T04:27:55.615Z,88.60
2022-09-18T04:29:59.600Z,88.57
2022-09-18T04:32:04.381Z,88.89
2022-09-18T04:34:08.541Z,89.53
2022-09-18T04:36:12.250Z,89.88
2022-09-18T04:38:16.203Z,89.59
2022-09-18T04:40:19.717Z,89.74
2022-09-18T04:42:23.721Z,90.10
2022-09-18T04:44:27.368Z,90.79
2022-09-18T04:46:31.535Z,90.80
2022-09-18T04:48:36.831Z,90.98
2022-09-18T04:50:41.904Z,91.56
2022-09-18T04:52:51.811Z,91.64
2022-09-18T04:54:55.902Z,91.99
2022-09-18T04:57:04.131Z,92.78
2022-09-18T04:59:08.564Z,92.95
2022-09-18T05:01:15.989Z,92.91
2022-09-18T05:03:20.744Z,93.64
2022-09-18T05:05:25.902Z,94.00
2022-09-18T05:07:29.604Z,94.01
2022-09-18T05:09:33.103Z,94.72
2022-09-18T05:11:39.288Z,94.48
2022-09-18T05:13:44.488Z,94.67
2022-09-18T05:15:55.489Z,95.78
2022-09-18T05:18:03.541Z,95.85
2022-09-18T05:20:11.287Z,96.50
2022-09-18T05:22:16.443Z,96.90
2022-09-18T05:24:26.978Z,97.68
2022-09-18T05:26:32.436Z,97.53
2022-09-18T05:28:36.667Z,97.70
2022-09-18T05:30:42.925Z,98.31
2022-09-18T05:32:58.719Z,99.63
2022-09-18T05:35:05.478Z,99.78
2022-09-18T05:37:10.778Z,100.00
2022-09-18T05:39:17.816Z,100.00
2022-09-18T05:41:24.972Z,100.00
2022-09-18T05:43:28.562Z,100.00
2022-09-18T05:45:32.252Z,100.00
2022-09-18T05:47:39.864Z,100.00
2022-09-18T05:49:45.796Z,100.00
2022-09-18T05:51:49.803Z,100.00
2022-09-18T05:54:00.562Z,100.00
2022-09-18T05:56:22.772Z,100.00
2022-09-18T05:58:26.869Z,100.00
2022-09-18T06:00:34.850Z,100.00
2022-09-18T06:02:45.355Z,100.00
2022-09-18T06:04:50.055Z,100.00
2022-09-18T06:06:54.113Z,100.00
2022-09-18T06:09:00.595Z,100.00
2022-09-18T06:11:04.395Z,100.00
2022-09-18T06:13:11.010Z,100.00
2022-09-18T06:15:19.688Z,100.00
2022-09-18T06:17:23.975Z,100.00
2022-09-18T06:19:30.118Z,100.00
2022-09-18T06:21:38.197Z,100.00
2022-09-18T06:23:43.943Z,100.00
2022-09-18T06:26:08.596Z,100.00
2022-09-18T06:28:15.353Z,100.00
2022-09-18T06:30:19.114Z,100.00
2022-09-18T06:32:22.833Z,100.00
2022-09-18T06:34:26.689Z,100.00
2022-09-18T06:36:34.214Z,100.00
2022-09-18T06:39:00.715Z,100.00
2022-09-18T06:41:04.561Z,100.00
2022-09-18T06:43:20.730Z,100.00
2022-09-18T06:45:39.695Z,100.00
2022-09-18T06:47:43.732Z,100.00
2022-09-18T06:49:50.958Z,100.00
2022-09-18T06:51:55.163Z,100.00
2022-09-18T06:53:58.945Z,100.00
2022-09-18T06:56:04.411Z,100.00
2022-09-18T06:58:12.406Z,100.00
2022-09-18T07:00:15.780Z,100.00
2022-09-18T07:02:25.099Z,100.00
2022-09-18T07:04:41.040Z,100.00
2022-09-18T07:06:46.896Z,100.00
2022-09-18T07:08:51.447Z,100.00
2022-09-18T07:11:11.053Z,100.00
2022-09-18T07:13:18.080Z,100.00
2022-09-18T07:15:22.631Z,100.00
2022-09-18T07:17:26.683Z,100.00
2022-09-18T07:19:33.224Z,100.00
2022-09-18T07:21:40.649Z,100.00
2022-09-18T07:23:45.744Z,100.00
2022-09-18T07:25:49.518Z,100.00
2022-09-18T07:27:53.499Z,100.00
2022-09-18T07:29:58.276Z,100.00
2022-09-18T07:32:06.723Z,100.00
2022-09-18T07:34:12.441Z,100.00
2022-09-18T07:36:15.935Z,100.00
2022-09-18T07:38:19.588Z,100.00
2022-09-18T07:40:29.741Z,100.00
2022-09-18T07:42:42.177Z,100.00
2022-09-18T07:44:46.306Z,100.00
2022-09-18T07:46:57.585Z,100.00
2022-09-18T07:49:01.218Z,100.00
2022-09-18T07:51:06.523Z,100.00
2022-09-18T07:53:11.978Z,100.00
2022-09-18T07:55:20.645Z,100.00
2022-09-18T07:57:33.662Z,100.00
2022-09-18T08:00:00.058Z,100.00
2022-09-18T08:02:04.009Z,100.00
2022-09-18T08:04:13.118Z,100.00
2022-09-18T08:06:37.493Z,100.00
2022-09-18T08:09:02.428Z,100.00
2022-09-18T08:11:14.595Z,100.00
2022-09-18T08:13:36.839Z,100.00
2022-09-18T08:16:07.164Z,100.00
2022-09-18T08:18:43.182Z,100.00
2022-09-18T08:21:08.551Z,100.00
2022-09-18T08:23:26.416Z,100.00
2022-09-18T08:25:31.290Z,100.00
2022-09-18T08:27:38.016Z,100.00
2022-09-18T08:29:45.524Z,100.00
2022-09-18T08:31:49.863Z,100.00
2022-09-18T08:33:54.121Z,100.00
2022-09-18T08:36:17.629Z,100.00
2022-09-18T08:38:35.607Z,100.00
2022-09-18T08:41:46.140Z,100.00
2022-09-18T08:43:55.290Z,100.00
2022-09-18T08:46:22.059Z,100.00
2022-09-18T08:48:35.223Z,100.00
2022-09-18T08:50:41.950Z,100.00
2022-09-18T08:52:51.258Z,100.00
2022-09-18T08:55:15.252Z,100.00
2022-09-18T08:57:38.818Z,100.00
2022-09-18T08:59:47.649Z,100.00
2022-09-18T09:02:11.005Z,100.00
2022-09-18T09:04:18.545Z,100.00
2022-09-18T09:06:51.072Z,100.00
2022-09-18T09:09:27.142Z,100.00
2022-09-18T09:11:39.408Z,100.00
2022-09-18T09:14:01.309Z,100.00
2022-09-18T09:16:09.969Z,100.00
2022-09-18T09:18:24.151Z,100.00
2022-09-18T09:20:43.209Z,100.00
2022-09-18T09:23:08.762Z,100.00
2022-09-18T09:25:17.210Z,100.00
2022-09-18T09:27:40.546Z,100.00
2022-09-18T09:30:22.715Z,100.00
2022-09-18T09:32:48.947Z,100.00
2022-09-18T09:35:25.136Z,100.00
2022-09-18T09:37:49.447Z,100.00
2022-09-18T09:40:00.570Z,100.00
2022-09-18T09:42:17.458Z,100.00
2022-09-18T09:44:39.250Z,100.00
2022-09-18T09:47:15.141Z,100.00
2022-09-18T09:49:33.608Z,100.00
2022-09-18T09:51:41.720Z,100.00
2022-09-18T09:53:45.605Z,100.00
2022-09-18T09:55:49.038Z,100.00
2022-09-18T09:58:02.017Z,100.00
2022-09-18T10:00:12.250Z,100.00
2022-09-18T10:02:35.324Z,100.00
2022-09-18T10:04:47.398Z,100.00
2022-09-18T10:07:00.504Z,100.00
2022-09-18T10:09:11.363Z,100.00
2022-09-18T10:11:16.411Z,100.00
2022-09-18T10:13:29.242Z,100.00
2022-09-18T10:15:45.010Z,100.00
2022-09-18T10:17:55.160Z,100.00
2022-09-18T10:19:58.756Z,100.00
2022-09-18T10:22:06.066Z,100.00
2022-09-18T10:24:27.237Z,100.00
2022-09-18T10:26:42.372Z,100.00
2022-09-18T10:28:49.309Z,100.00
2022-09-18T10:31:03.781Z,100.00
2022-09-18T10:33:29.822Z,100.00
2022-09-18T10:36:00.675Z,100.00
2022-09-18T10:38:04.184Z,100.00
2022-09-18T10:40:29.878Z,100.00
2022-09-18T10:42:35.702Z,100.00
2022-09-18T10:45:08.653Z,100.00
2022-09-18T10:47:20.144Z,100.00
2022-09-18T10:49:29.872Z,100.00
2022-09-18T10:51:36.851Z,100.00
2022-09-18T10:53:40.830Z,100.00
2022-09-18T10:56:06.129Z,100.00
2022-09-18T10:58:16.902Z,100.00
2022-09-18T11:00:30.401Z,100.00
2022-09-18T11:02:41.089Z,100.00
2022-09-18T11:04:48.938Z,100.00
2022-09-18T11:06:55.652Z,100.00
2022-09-18T11:09:03.989Z,100.00
2022-09-18T11:11:31.055Z,100.00
2022-09-18T11:13:50.919Z,100.00
2022-09-18T11:16:00.505Z,100.00
2022-09-18T11:18:08.847Z,100.00
2022-09-18T11:20:21.908Z,100.00
2022-09-18T11:22:36.349Z,100.00
2022-09-18T11:24:47.445Z,100.00
2022-09-18T11:26:53.131Z,100.00
2022-09-18T11:29:07.409Z,100.00
2022-09-18T11:31:20.257Z,100.00
2022-09-18T11:33:31.871Z,100.00
2022-09-18T11:35:45.448Z,100.00
2022-09-18T11:37:59.875Z,100.00
2022-09-18T11:40:08.272Z,100.00
2022-09-18T11:42:16.800Z,100.00
2022-09-18T11:44:28.201Z,100.00
2022-09-18T11:46:39.484Z,100.00
2022-09-18T11:48:43.581Z,100.00
2022-09-18T11:50:48.047Z,100.00
2022-09-18T11:52:57.996Z,100.00
2022-09-18T11:55:05.273Z,100.00
2022-09-18T11:57:18.716Z,100.00
2022-09-18T11:59:23.789Z,100.00
2022-09-18T12:01:50.019Z,100.00
2022-09-18T12:04:06.106Z,100.00
2022-09-18T12:06:39.456Z,100.00
2022-09-18T12:08:59.919Z,100.00
2022-09-18T12:11:24.256Z,100.00
2022-09-18T12:13:41.089Z,100.00
2022-09-18T12:15:49.793Z,100.00
2022-09-18T12:18:19.850Z,100.00
2022-09-18T12:20:32.886Z,100.00
2022-09-18T12:22:53.455Z,100.00
2022-09-18T12:25:03.188Z,100.00
2022-09-18T12:27:39.497Z,100.00
2022-09-18T12:30:12.539Z,100.00
2022-09-18T12:32:16.465Z,100.00
2022-09-18T12:34:29.431Z,100.00
2022-09-18T12:36:39.544Z,100.00
2022-09-18T12:39:03.185Z,100.00
2022-09-18T12:41:33.049Z,100.00
2022-09-18T12:43:47.597Z,100.00
2022-09-18T12:46:15.154Z,100.00
2022-09-18T12:48:32.055Z,100.00
2022-09-18T12:50:53.820Z,100.00
2022-09-18T12:53:19.530Z,100.00
2022-09-18T12:55:26.601Z,100.00
2022-09-18T12:57:40.223Z,100.00
2022-09-18T13:00:02.282Z,100.00
2022-09-18T13:02:15.781Z,100.00
2022-09-18T13:04:19.579Z,100.00
2022-09-18T13:06:30.302Z,100.00
2022-09-18T13:08:41.106Z,100.00
2022-09-18T13:10:46.066Z,100.00
2022-09-18T13:12:53.877Z,100.00
2022-09-18T13:15:09.049Z,100.00
2022-09-18T13:17:21.733Z,100.00
2022-09-18T13:19:34.176Z,100.00
2022-09-18T13:21:42.798Z,100.00
2022-09-18T13:23:47.481Z,100.00
2022-09-18T13:25:52.837Z,100.00
2022-09-18T13:27:57.849Z,100.00
2022-09-18T13:30:14.331Z,100.00
2022-09-18T13:32:37.179Z,100.00
2022-09-18T13:34:47.381Z,100.00
2022-09-18T13:36:51.415Z,100.00
2022-09-18T13:38:56.128Z,100.00
2022-09-18T13:41:08.055Z,100.00
2022-09-18T13:43:34.762Z,100.00
2022-09-18T13:45:39.411Z,100.00
2022-09-18T13:48:05.503Z,100.00
2022-09-18T13:50:18.389Z,100.00
2022-09-18T13:52:34.336Z,100.00
2022-09-18T13:54:38.341Z,100.00
2022-09-18T13:57:00.329Z,100.00
2022-09-18T13:59:03.939Z,100.00
2022-09-18T14:01:09.023Z,100.00
2022-09-18T14:03:15.713Z,100.00
2022-09-18T14:05:30.637Z,100.00
2022-09-18T14:07:36.968Z,100.00
2022-09-18T14:09:51.782Z,100.00
2022-09-18T14:11:55.600Z,100.00
2022-09-18T14:14:00.083Z,100.00
2022-09-18T14:16:12.212Z,100.00
2022-09-18T14:18:18.190Z,100.00
2022-09-18T14:20:23.126Z,100.00
2022-09-18T14:22:35.211Z,100.00
2022-09-18T14:24:40.217Z,100.00
2022-09-18T14:26:43.922Z,100.00
2022-09-18T14:28:48.496Z,100.00
2022-09-18T14:31:24.631Z,100.00
2022-09-18T14:33:28.449Z,100.00
2022-09-18T14:35:44.233Z,100.00
2022-09-18T14:37:48.247Z,100.00
2022-09-18T14:39:57.578Z,100.00
2022-09-18T14:42:08.519Z,100.00
2022-09-18T14:44:16.206Z,100.00
2022-09-18T14:46:24.125Z,100.00
2022-09-18T14:48:47.868Z,100.00
2022-09-18T14:51:03.950Z,100.00
2022-09-18T14:53:25.510Z,100.00
2022-09-18T14:55:37.609Z,100.00
2022-09-18T14:57:44.402Z,100.00
2022-09-18T14:59:55.817Z,100.00
2022-09-18T15:02:13.082Z,100.00
2022-09-18T15:04:22.531Z,100.00
2022-09-18T15:06:33.285Z,100.00
2022-09-18T15:08:37.546Z,100.00
2022-09-18T15:10:41.848Z,100.00
2022-09-18T15:12:48.043Z,100.00
2022-09-18T15:15:00.556Z,100.00
2022-09-18T15:17:05.977Z,100.00
2022-09-18T15:19:17.887Z,100.00
2022-09-18T15:21:27.983Z,100.00
2022-09-18T15:23:40.609Z,100.00
2022-09-18T15:25:45.032Z,100.00
2022-09-18T15:27:49.579Z,100.00
2022-09-18T15:30:04.228Z,100.00
2022-09-18T15:32:08.936Z,100.00
2022-09-18T15:34:18.272Z,100.00
2022-09-18T15:36:27.141Z,100.00
2022-09-18T15:38:41.987Z,100.00
2022-09-18T15:40:46.577Z,100.00
2022-09-18T15:43:13.382Z,100.00
2022-09-18T15:45:19.314Z,100.00
2022-09-18T15:47:36.254Z,100.00
2022-09-18T15:49:39.766Z,100.00
2022-09-18T15:51:43.345Z,100.00
2022-09-18T15:54:16.418Z,100.00
2022-09-18T15:56:22.101Z,100.00
2022-09-18T15:58:30.385Z,100.00
2022-09-18T16:00:39.748Z,100.00
2022-09-18T16:02:44.539Z,100.00
2022-09-18T16:04:48.481Z,100.00
2022-09-18T16:06:54.794Z,100.00
2022-09-18T16:08:58.880Z,100.00
2022-09-18T16:11:02.773Z,100.00
2022-09-18T16:13:12.019Z,100.00
2022-09-18T16:15:27.007Z,100.00
2022-09-18T16:17:33.757Z,100.00
2022-09-18T16:19:44.667Z,100.00
2022-09-18T16:21:48.343Z,100.00
2022-09-18T16:23:59.576Z,100.00
2022-09-18T16:26:03.111Z,100.00
2022-09-18T16:28:13.432Z,100.00
2022-09-18T16:30:17.112Z,100.00
2022-09-18T16:32:22.793Z,100.00
2022-09-18T16:34:29.801Z,98.50
2022-09-18T16:36:42.919Z,99.35
2022-09-18T16:38:46.225Z,100.00
2022-09-18T16:40:50.278Z,94.25
2022-09-18T16:42:59.437Z,94.48
2022-09-18T16:45:07.952Z,90.95
2022-09-18T16:47:13.620Z,93.90
2022-09-18T16:49:21.979Z,89.61
2022-09-18T16:51:25.794Z,88.88
2022-09-18T16:53:35.435Z,87.65
2022-09-18T16:55:41.704Z,86.14
2022-09-18T16:57:45.890Z,81.98
2022-09-18T16:59:50.623Z,82.92
2022-09-18T17:02:03.697Z,85.15
2022-09-18T17:04:09.184Z,82.45
2022-09-18T17:06:18.903Z,80.97
2022-09-18T17:08:22.561Z,80.69
2022-09-18T17:10:26.440Z,78.74
2022-09-18T17:12:30.250Z,80.82
2022-09-18T17:14:35.949Z,77.66
2022-09-18T17:16:44.528Z,78.41
2022-09-18T17:18:48.619Z,78.15
2022-09-18T17:20:52.132Z,75.57
2022-09-18T17:22:55.895Z,77.97
2022-09-18T17:24:59.440Z,73.48
2022-09-18T17:27:03.820Z,72.04
2022-09-18T17:29:08.068Z,72.95
2022-09-18T17:31:12.572Z,69.53
2022-09-18T17:33:20.229Z,70.35
2022-09-18T17:35:23.862Z,70.72
2022-09-18T17:37:31.006Z,72.05
2022-09-18T17:39:34.765Z,69.64
2022-09-18T17:41:39.215Z,68.52
2022-09-18T17:43:51.375Z,70.86
2022-09-18T17:46:01.742Z,66.99
2022-09-18T17:48:05.250Z,67.00
2022-09-18T17:50:09.764Z,67.29
2022-09-18T17:52:13.497Z,66.80
2022-09-18T17:54:18.145Z,68.11
2022-09-18T17:56:22.036Z,69.19
2022-09-18T17:58:25.901Z,66.73
2022-09-18T18:00:32.175Z,64.07
2022-09-18T18:02:36.230Z,67.65
2022-09-18T18:04:42.014Z,63.99
2022-09-18T18:06:48.222Z,60.57
2022-09-18T18:08:52.024Z,61.61
2022-09-18T18:10:56.470Z,60.91
2022-09-18T18:13:00.173Z,60.67
2022-09-18T18:15:03.852Z,58.64
2022-09-18T18:17:08.009Z,62.89
2022-09-18T18:19:15.238Z,63.73
2022-09-18T18:21:20.346Z,61.90
2022-09-18T18:23:24.580Z,63.97
2022-09-18T18:25:28.323Z,57.94
2022-09-18T18:27:33.735Z,61.69
2022-09-18T18:29:43.301Z,57.63
2022-09-18T18:31:50.369Z,57.13
2022-09-18T18:33:55.578Z,57.06
2022-09-18T18:36:22.096Z,56.88
2022-09-18T18:38:26.377Z,57.03
2022-09-18T18:40:31.002Z,56.68
2022-09-18T18:42:34.737Z,56.97
2022-09-18T18:44:38.470Z,56.70
2022-09-18T18:46:42.425Z,54.34
2022-09-18T18:48:46.218Z,51.33
2022-09-18T18:50:51.425Z,48.95
2022-09-18T18:52:54.813Z,53.62
2022-09-18T18:55:00.684Z,49.64
2022-09-18T18:57:04.436Z,50.71
2022-09-18T18:59:09.772Z,48.29
2022-09-18T19:01:15.196Z,47.60
2022-09-18T19:03:19.125Z,49.28
2022-09-18T19:05:31.368Z,49.47
2022-09-18T19:07:34.906Z,51.93
2022-09-18T19:09:38.466Z,48.20
2022-09-18T19:11:49.466Z,48.00
2022-09-18T19:13:53.879Z,44.76
2022-09-18T19:15:57.963Z,45.19
2022-09-18T19:18:03.108Z,43.78
2022-09-18T19:20:06.958Z,45.79
2022-09-18T19:22:14.148Z,47.94
2022-09-18T19:24:19.681Z,42.59
2022-09-18T19:26:24.187Z,42.35
2022-09-18T19:28:31.194Z,40.19
2022-09-18T19:30:38.761Z,42.79
2022-09-18T19:32:43.162Z,42.57
2022-09-18T19:34:46.693Z,42.08
2022-09-18T19:36:51.166Z,43.08
2022-09-18T19:38:55.855Z,42.05
2022-09-18T19:41:00.823Z,42.46
2022-09-18T19:43:09.980Z,40.28
2022-09-18T19:45:16.866Z,38.62
2022-09-18T19:47:22.046Z,38.99
2022-09-18T19:49:30.452Z,39.87
2022-09-18T19:51:35.613Z,40.19
2022-09-18T19:53:39.480Z,40.65
2022-09-18T19:55:47.771Z,40.60
2022-09-18T19:57:53.796Z,43.61
2022-09-18T20:00:01.821Z,41.53
2022-09-18T20:02:18.341Z,41.73
2022-09-18T20:04:22.249Z,42.37
2022-09-18T20:06:25.902Z,40.50
2022-09-18T20:08:29.514Z,40.34
2022-09-18T20:10:33.699Z,39.41
2022-09-18T20:12:38.583Z,40.28
2022-09-18T20:14:42.393Z,40.22
2022-09-18T20:16:46.330Z,42.22
2022-09-18T20:18:51.032Z,40.50
2022-09-18T20:20:54.798Z,40.19
2022-09-18T20:22:58.432Z,39.10
2022-09-18T20:25:02.090Z,37.93
2022-09-18T20:27:06.016Z,38.10
2022-09-18T20:29:14.051Z,38.04
2022-09-18T20:31:23.379Z,38.71
2022-09-18T20:33:27.506Z,36.61
2022-09-18T20:35:31.242Z,36.37
2022-09-18T20:37:35.070Z,35.57
2022-09-18T20:39:38.740Z,37.62
2022-09-18T20:41:42.372Z,36.24
2022-09-18T20:43:46.364Z,37.40
2022-09-18T20:45:59.489Z,38.88
2022-09-18T20:48:05.465Z,39.97
2022-09-18T20:50:10.202Z,41.00
2022-09-18T20:52:14.820Z,41.69
2022-09-18T20:54:23.885Z,40.48
2022-09-18T20:56:29.004Z,36.85
2022-09-18T20:58:37.640Z,37.95
2022-09-18T21:00:41.512Z,39.00
2022-09-18T21:02:50.393Z,39.01
2022-09-18T21:04:55.458Z,38.86
2022-09-18T21:07:00.792Z,35.84
2022-09-18T21:09:08.692Z,34.95
2022-09-18T21:11:16.065Z,36.02
2022-09-18T21:13:21.031Z,38.53
2022-09-18T21:15:24.939Z,39.91
2022-09-18T21:17:29.179Z,37.99
2022-09-18T21:19:32.838Z,34.42
2022-09-18T21:21:39.732Z,34.58
2022-09-18T21:23:59.949Z,36.24
2022-09-18T21:26:14.400Z,35.36
2022-09-18T21:28:21.462Z,37.25
2022-09-18T21:30:27.592Z,38.09
2022-09-18T21:32:31.925Z,37.60
2022-09-18T21:34:36.006Z,39.43
2022-09-18T21:36:47.957Z,36.06
2022-09-18T21:38:52.598Z,37.60
2022-09-18T21:40:59.447Z,35.87
2022-09-18T21:43:04.394Z,37.28
2022-09-18T21:45:07.936Z,37.25
2022-09-18T21:47:13.226Z,39.59
2022-09-18T21:49:17.277Z,34.67
2022-09-18T21:51:21.717Z,37.23
2022-09-18T21:53:25.257Z,33.01
2022-09-18T21:55:29.829Z,32.86
2022-09-18T21:57:33.767Z,34.40
2022-09-18T21:59:37.949Z,35.34
2022-09-18T22:01:43.877Z,36.12
2022-09-18T22:03:53.294Z,37.48
2022-09-18T22:05:57.239Z,37.46
2022-09-18T22:08:05.930Z,38.78
2022-09-18T22:10:10.038Z,39.73
2022-09-18T22:12:14.250Z,38.98
2022-09-18T22:14:19.624Z,41.21
2022-09-18T22:16:44.138Z,37.40
2022-09-18T22:18:49.619Z,36.27
2022-09-18T22:20:53.808Z,36.96
2022-09-18T22:22:57.471Z,37.30
2022-09-18T22:25:04.240Z,38.61
2022-09-18T22:27:09.198Z,36.31
2022-09-18T22:29:36.139Z,35.88
2022-09-18T22:31:40.392Z,36.80
2022-09-18T22:33:44.162Z,37.14
2022-09-18T22:35:47.799Z,36.33
2022-09-18T22:37:51.383Z,36.04
2022-09-18T22:39:55.213Z,34.74
2022-09-18T22:42:01.883Z,33.77
2022-09-18T22:44:06.563Z,34.17
2022-09-18T22:46:12.855Z,35.87
2022-09-18T22:48:17.382Z,35.87
2022-09-18T22:50:23.542Z,36.22
2022-09-18T22:52:27.176Z,37.01
2022-09-18T22:54:30.832Z,38.30
2022-09-18T22:56:35.807Z,38.04
2022-09-18T22:58:41.130Z,37.51
2022-09-18T23:00:44.812Z,37.68
2022-09-18T23:02:51.109Z,38.42
2022-09-18T23:04:58.047Z,38.57
2022-09-18T23:07:02.520Z,38.64
2022-09-18T23:09:07.951Z,40.30
2022-09-18T23:11:13.067Z,39.68
2022-09-18T23:13:17.297Z,39.24
2022-09-18T23:15:21.341Z,39.99
2022-09-18T23:17:25.204Z,39.17
2022-09-18T23:19:34.146Z,40.97
2022-09-18T23:21:40.001Z,39.65
2022-09-18T23:23:45.216Z,39.55
2022-09-18T23:25:48.801Z,40.38
2022-09-18T23:27:54.059Z,40.33
2022-09-18T23:29:57.622Z,41.28
2022-09-18T23:32:01.537Z,41.63
2022-09-18T23:34:06.440Z,42.44
2022-09-18T23:36:19.684Z,41.78
2022-09-18T23:38:23.412Z,43.46
2022-09-18T23:40:27.042Z,43.27
2022-09-18T23:42:30.515Z,43.61
2022-09-18T23:44:34.507Z,44.72
2022-09-18T23:46:38.576Z,44.41
2022-09-18T23:48:42.683Z,45.43
2022-09-18T23:50:46.332Z,45.71
2022-09-18T23:52:50.536Z,45.38
2022-09-18T23:54:54.071Z,45.18
2022-09-18T23:56:57.598Z,46.72
2022-09-18T23:59:02.175Z,45.13
